sensor_id;sensor_type;location;lat;lon;timestamp;temperature;humidity
21582;DHT22;10952;50.836;4.348;2023-04-15T00:01:47;12.60;99.90
21582;DHT22;10952;50.836;4.348;2023-04-15T00:04:12;12.60;99.90
21582;DHT22;10952;50.836;4.348;2023-04-15T00:06:38;12.80;99.90
21582;DHT22;10952;50.836;4.348;2023-04-15T00:09:06;12.80;99.90
21582;DHT22;10952;50.836;4.348;2023-04-15T00:11:32;12.70;99.90
21582;DHT22;10952;50.836;4.348;2023-04-15T00:13:58;12.70;99.90
21582;DHT22;10952;50.836;4.348;2023-04-15T00:16:25;12.70;99.90
21582;DHT22;10952;50.836;4.348;2023-04-15T00:18:50;12.80;99.90
21582;DHT22;10952;50.836;4.348;2023-04-15T00:21:16;12.60;99.90
21582;DHT22;10952;50.836;4.348;2023-04-15T00:23:42;12.50;99.90
21582;DHT22;10952;50.836;4.348;2023-04-15T00:26:08;12.50;99.90
21582;DHT22;10952;50.836;4.348;2023-04-15T00:28:34;12.40;99.90
21582;DHT22;10952;50.836;4.348;2023-04-15T00:31:04;12.40;99.90
21582;DHT22;10952;50.836;4.348;2023-04-15T00:33:30;12.30;99.90
21582;DHT22;10952;50.836;4.348;2023-04-15T00:35:56;12.30;99.90
21582;DHT22;10952;50.836;4.348;2023-04-15T00:38:22;12.40;99.90
21582;DHT22;10952;50.836;4.348;2023-04-15T00:40:47;12.40;99.90
21582;DHT22;10952;50.836;4.348;2023-04-15T00:43:13;12.40;99.90
21582;DHT22;10952;50.836;4.348;2023-04-15T00:45:38;12.30;99.90
21582;DHT22;10952;50.836;4.348;2023-04-15T00:48:04;12.30;99.90
21582;DHT22;10952;50.836;4.348;2023-04-15T00:50:30;12.20;99.90
21582;DHT22;10952;50.836;4.348;2023-04-15T00:52:56;12.10;99.90
21582;DHT22;10952;50.836;4.348;2023-04-15T00:55:21;12.10;99.90
21582;DHT22;10952;50.836;4.348;2023-04-15T00:57:47;12.10;99.90
21582;DHT22;10952;50.836;4.348;2023-04-15T01:00:13;12.00;99.90
21582;DHT22;10952;50.836;4.348;2023-04-15T01:02:38;12.00;99.90
21582;DHT22;10952;50.836;4.348;2023-04-15T01:05:04;12.10;99.90
21582;DHT22;10952;50.836;4.348;2023-04-15T01:07:30;12.30;99.90
21582;DHT22;10952;50.836;4.348;2023-04-15T01:09:56;12.30;99.90
21582;DHT22;10952;50.836;4.348;2023-04-15T01:12:24;12.30;99.90
21582;DHT22;10952;50.836;4.348;2023-04-15T01:14:51;12.30;99.90
21582;DHT22;10952;50.836;4.348;2023-04-15T01:17:17;12.40;99.90
21582;DHT22;10952;50.836;4.348;2023-04-15T01:19:43;12.40;99.90
21582;DHT22;10952;50.836;4.348;2023-04-15T01:22:09;12.50;99.90
21582;DHT22;10952;50.836;4.348;2023-04-15T01:24:36;12.50;99.90
21582;DHT22;10952;50.836;4.348;2023-04-15T01:27:02;12.50;99.90
21582;DHT22;10952;50.836;4.348;2023-04-15T01:29:32;12.50;99.90
21582;DHT22;10952;50.836;4.348;2023-04-15T01:31:57;12.30;99.90
21582;DHT22;10952;50.836;4.348;2023-04-15T01:34:23;12.30;99.90
21582;DHT22;10952;50.836;4.348;2023-04-15T01:36:49;12.30;99.90
21582;DHT22;10952;50.836;4.348;2023-04-15T01:39:14;12.20;99.90
21582;DHT22;10952;50.836;4.348;2023-04-15T01:41:40;12.20;99.90
21582;DHT22;10952;50.836;4.348;2023-04-15T01:44:07;12.20;99.90
21582;DHT22;10952;50.836;4.348;2023-04-15T01:46:33;12.20;99.90
21582;DHT22;10952;50.836;4.348;2023-04-15T01:48:58;12.30;99.90
21582;DHT22;10952;50.836;4.348;2023-04-15T01:51:24;12.10;99.90
21582;DHT22;10952;50.836;4.348;2023-04-15T01:53:49;12.10;99.90
21582;DHT22;10952;50.836;4.348;2023-04-15T01:56:16;12.10;99.90
21582;DHT22;10952;50.836;4.348;2023-04-15T01:58:43;12.10;99.90
21582;DHT22;10952;50.836;4.348;2023-04-15T02:01:08;12.10;99.90
21582;DHT22;10952;50.836;4.348;2023-04-15T02:03:34;12.10;99.90
21582;DHT22;10952;50.836;4.348;2023-04-15T02:06:00;12.10;99.90
21582;DHT22;10952;50.836;4.348;2023-04-15T02:08:25;12.10;99.90
21582;DHT22;10952;50.836;4.348;2023-04-15T02:10:51;12.10;99.90
21582;DHT22;10952;50.836;4.348;2023-04-15T02:13:17;12.20;99.90
21582;DHT22;10952;50.836;4.348;2023-04-15T02:15:47;12.10;99.90
21582;DHT22;10952;50.836;4.348;2023-04-15T02:18:15;12.10;99.90
21582;DHT22;10952;50.836;4.348;2023-04-15T02:20:40;12.10;99.90
21582;DHT22;10952;50.836;4.348;2023-04-15T02:23:07;12.10;99.90
21582;DHT22;10952;50.836;4.348;2023-04-15T02:25:33;12.10;99.90
21582;DHT22;10952;50.836;4.348;2023-04-15T02:27:59;12.10;99.90
21582;DHT22;10952;50.836;4.348;2023-04-15T02:30:24;12.10;99.90
21582;DHT22;10952;50.836;4.348;2023-04-15T02:32:50;12.10;99.90
21582;DHT22;10952;50.836;4.348;2023-04-15T02:35:16;12.00;99.90
21582;DHT22;10952;50.836;4.348;2023-04-15T02:37:44;12.00;99.90
21582;DHT22;10952;50.836;4.348;2023-04-15T02:40:11;12.10;99.90
21582;DHT22;10952;50.836;4.348;2023-04-15T02:42:38;11.90;99.90
21582;DHT22;10952;50.836;4.348;2023-04-15T02:45:05;11.90;99.90
21582;DHT22;10952;50.836;4.348;2023-04-15T02:47:31;11.80;99.90
21582;DHT22;10952;50.836;4.348;2023-04-15T02:49:57;11.90;99.90
21582;DHT22;10952;50.836;4.348;2023-04-15T02:52:24;11.90;99.90
21582;DHT22;10952;50.836;4.348;2023-04-15T02:54:50;12.00;99.90
21582;DHT22;10952;50.836;4.348;2023-04-15T02:57:16;11.90;99.90
21582;DHT22;10952;50.836;4.348;2023-04-15T02:59:41;11.90;99.90
21582;DHT22;10952;50.836;4.348;2023-04-15T03:02:07;12.00;99.90
21582;DHT22;10952;50.836;4.348;2023-04-15T03:04:33;11.90;99.90
21582;DHT22;10952;50.836;4.348;2023-04-15T03:07:00;11.80;99.90
21582;DHT22;10952;50.836;4.348;2023-04-15T03:09:26;11.80;99.90
21582;DHT22;10952;50.836;4.348;2023-04-15T03:11:51;11.80;99.90
21582;DHT22;10952;50.836;4.348;2023-04-15T03:14:19;11.80;99.90
21582;DHT22;10952;50.836;4.348;2023-04-15T03:16:44;11.90;99.90
21582;DHT22;10952;50.836;4.348;2023-04-15T03:19:10;11.70;99.90
21582;DHT22;10952;50.836;4.348;2023-04-15T03:21:35;11.80;99.90
21582;DHT22;10952;50.836;4.348;2023-04-15T03:24:01;11.80;99.90
21582;DHT22;10952;50.836;4.348;2023-04-15T03:26:28;11.80;99.90
21582;DHT22;10952;50.836;4.348;2023-04-15T03:28:54;11.80;99.90
21582;DHT22;10952;50.836;4.348;2023-04-15T03:31:20;11.60;99.90
21582;DHT22;10952;50.836;4.348;2023-04-15T03:33:46;11.50;99.90
21582;DHT22;10952;50.836;4.348;2023-04-15T03:36:12;11.60;99.90
21582;DHT22;10952;50.836;4.348;2023-04-15T03:38:37;11.50;99.90
21582;DHT22;10952;50.836;4.348;2023-04-15T03:41:03;11.40;99.90
21582;DHT22;10952;50.836;4.348;2023-04-15T03:43:29;11.50;99.90
21582;DHT22;10952;50.836;4.348;2023-04-15T03:45:55;11.40;99.90
21582;DHT22;10952;50.836;4.348;2023-04-15T03:48:20;11.50;99.90
21582;DHT22;10952;50.836;4.348;2023-04-15T03:50:46;11.60;99.90
21582;DHT22;10952;50.836;4.348;2023-04-15T03:53:14;11.50;99.90
21582;DHT22;10952;50.836;4.348;2023-04-15T03:55:40;11.50;99.90
21582;DHT22;10952;50.836;4.348;2023-04-15T03:58:05;11.60;99.90
21582;DHT22;10952;50.836;4.348;2023-04-15T04:00:31;11.70;99.90
21582;DHT22;10952;50.836;4.348;2023-04-15T04:02:56;11.60;99.90
21582;DHT22;10952;50.836;4.348;2023-04-15T04:05:22;11.60;99.90
21582;DHT22;10952;50.836;4.348;2023-04-15T04:07:48;11.30;99.90
21582;DHT22;10952;50.836;4.348;2023-04-15T04:10:13;11.20;99.90
21582;DHT22;10952;50.836;4.348;2023-04-15T04:12:39;11.20;99.90
21582;DHT22;10952;50.836;4.348;2023-04-15T04:15:05;11.40;99.90
21582;DHT22;10952;50.836;4.348;2023-04-15T04:17:31;11.30;99.90
21582;DHT22;10952;50.836;4.348;2023-04-15T04:19:57;11.20;99.90
21582;DHT22;10952;50.836;4.348;2023-04-15T04:22:23;11.10;99.90
21582;DHT22;10952;50.836;4.348;2023-04-15T04:24:49;11.00;99.90
21582;DHT22;10952;50.836;4.348;2023-04-15T04:27:15;10.80;99.90
21582;DHT22;10952;50.836;4.348;2023-04-15T04:29:40;10.80;99.90
21582;DHT22;10952;50.836;4.348;2023-04-15T04:32:06;10.90;99.90
21582;DHT22;10952;50.836;4.348;2023-04-15T04:34:32;10.90;99.90
21582;DHT22;10952;50.836;4.348;2023-04-15T04:36:57;11.00;99.90
21582;DHT22;10952;50.836;4.348;2023-04-15T04:39:23;10.90;99.90
21582;DHT22;10952;50.836;4.348;2023-04-15T04:41:49;10.90;99.90
21582;DHT22;10952;50.836;4.348;2023-04-15T04:44:16;11.10;99.90
21582;DHT22;10952;50.836;4.348;2023-04-15T04:46:42;11.20;99.90
21582;DHT22;10952;50.836;4.348;2023-04-15T04:49:07;11.30;99.90
21582;DHT22;10952;50.836;4.348;2023-04-15T04:51:33;11.30;99.90
21582;DHT22;10952;50.836;4.348;2023-04-15T04:53:59;11.20;99.90
21582;DHT22;10952;50.836;4.348;2023-04-15T04:56:24;11.30;99.90
21582;DHT22;10952;50.836;4.348;2023-04-15T04:58:50;11.10;99.90
21582;DHT22;10952;50.836;4.348;2023-04-15T05:01:16;11.10;99.90
21582;DHT22;10952;50.836;4.348;2023-04-15T05:03:42;11.10;99.90
21582;DHT22;10952;50.836;4.348;2023-04-15T05:06:07;11.00;99.90
21582;DHT22;10952;50.836;4.348;2023-04-15T05:08:33;11.00;99.90
21582;DHT22;10952;50.836;4.348;2023-04-15T05:10:59;11.10;99.90
21582;DHT22;10952;50.836;4.348;2023-04-15T05:13:25;11.00;99.90
21582;DHT22;10952;50.836;4.348;2023-04-15T05:15:50;11.20;99.90
21582;DHT22;10952;50.836;4.348;2023-04-15T05:18:16;11.10;99.90
21582;DHT22;10952;50.836;4.348;2023-04-15T05:20:41;11.30;99.90
21582;DHT22;10952;50.836;4.348;2023-04-15T05:23:07;11.40;99.90
21582;DHT22;10952;50.836;4.348;2023-04-15T05:25:33;11.50;99.90
21582;DHT22;10952;50.836;4.348;2023-04-15T05:27:58;11.60;99.90
21582;DHT22;10952;50.836;4.348;2023-04-15T05:30:24;11.50;99.90
21582;DHT22;10952;50.836;4.348;2023-04-15T05:32:51;11.50;99.90
21582;DHT22;10952;50.836;4.348;2023-04-15T05:35:16;11.60;99.90
21582;DHT22;10952;50.836;4.348;2023-04-15T05:37:42;11.70;99.90
21582;DHT22;10952;50.836;4.348;2023-04-15T05:40:08;11.70;99.90
21582;DHT22;10952;50.836;4.348;2023-04-15T05:42:35;11.80;99.90
21582;DHT22;10952;50.836;4.348;2023-04-15T05:45:00;11.80;99.90
21582;DHT22;10952;50.836;4.348;2023-04-15T05:47:29;11.70;99.90
21582;DHT22;10952;50.836;4.348;2023-04-15T05:49:55;11.80;99.90
21582;DHT22;10952;50.836;4.348;2023-04-15T05:52:21;11.80;99.90
21582;DHT22;10952;50.836;4.348;2023-04-15T05:54:46;11.90;99.90
21582;DHT22;10952;50.836;4.348;2023-04-15T05:57:12;11.90;99.90
21582;DHT22;10952;50.836;4.348;2023-04-15T05:59:38;11.90;99.90
21582;DHT22;10952;50.836;4.348;2023-04-15T06:02:03;11.90;99.90
21582;DHT22;10952;50.836;4.348;2023-04-15T06:04:29;11.90;99.90
21582;DHT22;10952;50.836;4.348;2023-04-15T06:06:54;11.80;99.90
21582;DHT22;10952;50.836;4.348;2023-04-15T06:09:20;11.90;99.90
21582;DHT22;10952;50.836;4.348;2023-04-15T06:11:46;11.80;99.90
21582;DHT22;10952;50.836;4.348;2023-04-15T06:14:11;11.80;99.90
21582;DHT22;10952;50.836;4.348;2023-04-15T06:16:37;12.00;99.90
21582;DHT22;10952;50.836;4.348;2023-04-15T06:19:03;12.00;99.90
21582;DHT22;10952;50.836;4.348;2023-04-15T06:21:29;12.10;99.90
21582;DHT22;10952;50.836;4.348;2023-04-15T06:23:55;12.20;99.90
21582;DHT22;10952;50.836;4.348;2023-04-15T06:26:21;12.30;99.90
21582;DHT22;10952;50.836;4.348;2023-04-15T06:28:47;12.20;99.90
21582;DHT22;10952;50.836;4.348;2023-04-15T06:31:13;12.20;99.90
21582;DHT22;10952;50.836;4.348;2023-04-15T06:33:38;12.30;99.90
21582;DHT22;10952;50.836;4.348;2023-04-15T06:36:04;12.30;99.90
21582;DHT22;10952;50.836;4.348;2023-04-15T06:38:30;12.30;99.90
21582;DHT22;10952;50.836;4.348;2023-04-15T06:40:55;12.30;99.90
21582;DHT22;10952;50.836;4.348;2023-04-15T06:43:21;12.10;99.90
21582;DHT22;10952;50.836;4.348;2023-04-15T06:45:47;11.90;99.90
21582;DHT22;10952;50.836;4.348;2023-04-15T06:48:13;11.90;99.90
21582;DHT22;10952;50.836;4.348;2023-04-15T06:50:39;12.10;99.90
21582;DHT22;10952;50.836;4.348;2023-04-15T06:53:05;12.50;99.90
21582;DHT22;10952;50.836;4.348;2023-04-15T06:55:30;12.80;99.90
21582;DHT22;10952;50.836;4.348;2023-04-15T06:57:56;12.80;99.90
21582;DHT22;10952;50.836;4.348;2023-04-15T07:00:22;12.70;99.90
21582;DHT22;10952;50.836;4.348;2023-04-15T07:02:47;12.80;99.90
21582;DHT22;10952;50.836;4.348;2023-04-15T07:05:13;12.90;99.90
21582;DHT22;10952;50.836;4.348;2023-04-15T07:07:39;13.00;99.90
21582;DHT22;10952;50.836;4.348;2023-04-15T07:10:05;13.20;99.90
21582;DHT22;10952;50.836;4.348;2023-04-15T07:12:31;13.20;99.90
21582;DHT22;10952;50.836;4.348;2023-04-15T07:14:57;13.30;99.90
21582;DHT22;10952;50.836;4.348;2023-04-15T07:17:22;13.30;99.90
21582;DHT22;10952;50.836;4.348;2023-04-15T07:19:48;13.50;99.90
21582;DHT22;10952;50.836;4.348;2023-04-15T07:22:14;13.70;99.90
21582;DHT22;10952;50.836;4.348;2023-04-15T07:24:40;13.90;99.90
21582;DHT22;10952;50.836;4.348;2023-04-15T07:27:05;13.90;99.90
21582;DHT22;10952;50.836;4.348;2023-04-15T07:29:31;13.70;99.90
21582;DHT22;10952;50.836;4.348;2023-04-15T07:31:57;13.60;99.90
21582;DHT22;10952;50.836;4.348;2023-04-15T07:34:23;13.40;99.90
21582;DHT22;10952;50.836;4.348;2023-04-15T07:36:49;13.10;99.90
21582;DHT22;10952;50.836;4.348;2023-04-15T07:39:16;13.00;99.90
21582;DHT22;10952;50.836;4.348;2023-04-15T07:41:42;13.00;99.90
21582;DHT22;10952;50.836;4.348;2023-04-15T07:44:08;13.00;99.90
21582;DHT22;10952;50.836;4.348;2023-04-15T07:46:33;12.90;99.90
21582;DHT22;10952;50.836;4.348;2023-04-15T07:48:59;12.80;99.90
21582;DHT22;10952;50.836;4.348;2023-04-15T07:51:26;13.00;99.90
21582;DHT22;10952;50.836;4.348;2023-04-15T07:53:54;13.00;99.90
21582;DHT22;10952;50.836;4.348;2023-04-15T07:56:20;12.80;99.90
21582;DHT22;10952;50.836;4.348;2023-04-15T07:58:46;12.60;99.90
21582;DHT22;10952;50.836;4.348;2023-04-15T08:01:12;12.50;99.90
21582;DHT22;10952;50.836;4.348;2023-04-15T08:03:38;12.50;99.90
21582;DHT22;10952;50.836;4.348;2023-04-15T08:06:03;12.50;99.90
21582;DHT22;10952;50.836;4.348;2023-04-15T08:08:29;12.50;99.90
21582;DHT22;10952;50.836;4.348;2023-04-15T08:10:56;12.50;99.90
21582;DHT22;10952;50.836;4.348;2023-04-15T08:13:22;12.50;99.90
21582;DHT22;10952;50.836;4.348;2023-04-15T08:18:37;12.70;99.90
21582;DHT22;10952;50.836;4.348;2023-04-15T08:21:03;12.60;99.90
21582;DHT22;10952;50.836;4.348;2023-04-15T08:23:30;12.80;99.90
21582;DHT22;10952;50.836;4.348;2023-04-15T08:25:56;12.90;99.90
21582;DHT22;10952;50.836;4.348;2023-04-15T08:28:22;12.90;99.90
21582;DHT22;10952;50.836;4.348;2023-04-15T08:30:47;12.90;99.90
21582;DHT22;10952;50.836;4.348;2023-04-15T08:33:13;13.10;99.90
21582;DHT22;10952;50.836;4.348;2023-04-15T08:35:39;13.50;99.90
21582;DHT22;10952;50.836;4.348;2023-04-15T08:38:04;13.60;99.90
21582;DHT22;10952;50.836;4.348;2023-04-15T08:40:39;13.70;99.90
21582;DHT22;10952;50.836;4.348;2023-04-15T08:43:07;13.90;99.90
21582;DHT22;10952;50.836;4.348;2023-04-15T08:45:34;14.00;99.90
21582;DHT22;10952;50.836;4.348;2023-04-15T08:48:02;14.30;99.90
21582;DHT22;10952;50.836;4.348;2023-04-15T08:50:31;14.70;99.90
21582;DHT22;10952;50.836;4.348;2023-04-15T08:52:58;15.00;99.90
21582;DHT22;10952;50.836;4.348;2023-04-15T08:55:28;15.40;99.90
21582;DHT22;10952;50.836;4.348;2023-04-15T08:57:55;15.70;99.90
21582;DHT22;10952;50.836;4.348;2023-04-15T09:00:21;16.00;99.90
21582;DHT22;10952;50.836;4.348;2023-04-15T09:02:47;16.00;99.90
21582;DHT22;10952;50.836;4.348;2023-04-15T09:05:13;16.20;99.90
21582;DHT22;10952;50.836;4.348;2023-04-15T09:07:39;16.40;99.90
21582;DHT22;10952;50.836;4.348;2023-04-15T09:10:05;16.30;99.90
21582;DHT22;10952;50.836;4.348;2023-04-15T09:12:34;16.00;99.90
21582;DHT22;10952;50.836;4.348;2023-04-15T09:15:00;16.20;99.90
21582;DHT22;10952;50.836;4.348;2023-04-15T09:17:27;16.30;99.90
21582;DHT22;10952;50.836;4.348;2023-04-15T09:20:09;16.20;99.90
21582;DHT22;10952;50.836;4.348;2023-04-15T09:22:36;16.00;99.90
21582;DHT22;10952;50.836;4.348;2023-04-15T09:28:00;16.20;99.90
21582;DHT22;10952;50.836;4.348;2023-04-15T09:30:28;15.90;99.90
21582;DHT22;10952;50.836;4.348;2023-04-15T09:32:57;15.80;99.90
21582;DHT22;10952;50.836;4.348;2023-04-15T09:35:24;15.80;99.90
21582;DHT22;10952;50.836;4.348;2023-04-15T09:37:51;15.90;99.90
21582;DHT22;10952;50.836;4.348;2023-04-15T09:40:36;15.90;99.90
21582;DHT22;10952;50.836;4.348;2023-04-15T09:43:06;16.00;99.90
21582;DHT22;10952;50.836;4.348;2023-04-15T09:45:35;16.00;99.90
21582;DHT22;10952;50.836;4.348;2023-04-15T09:48:16;16.10;99.90
21582;DHT22;10952;50.836;4.348;2023-04-15T09:50:42;16.10;99.90
21582;DHT22;10952;50.836;4.348;2023-04-15T09:53:09;16.10;99.90
21582;DHT22;10952;50.836;4.348;2023-04-15T09:55:36;16.00;99.90
21582;DHT22;10952;50.836;4.348;2023-04-15T09:58:07;16.00;99.90
21582;DHT22;10952;50.836;4.348;2023-04-15T10:00:33;16.10;99.90
21582;DHT22;10952;50.836;4.348;2023-04-15T10:02:59;16.10;99.90
21582;DHT22;10952;50.836;4.348;2023-04-15T10:05:26;16.20;99.90
21582;DHT22;10952;50.836;4.348;2023-04-15T10:07:51;16.30;99.90
21582;DHT22;10952;50.836;4.348;2023-04-15T10:10:17;16.20;99.90
21582;DHT22;10952;50.836;4.348;2023-04-15T10:12:44;16.20;99.90
21582;DHT22;10952;50.836;4.348;2023-04-15T10:15:14;16.10;99.90
21582;DHT22;10952;50.836;4.348;2023-04-15T10:17:43;16.20;99.90
21582;DHT22;10952;50.836;4.348;2023-04-15T10:20:09;16.20;99.90
21582;DHT22;10952;50.836;4.348;2023-04-15T10:22:36;16.20;99.90
21582;DHT22;10952;50.836;4.348;2023-04-15T10:25:02;16.20;99.90
21582;DHT22;10952;50.836;4.348;2023-04-15T10:27:29;16.50;99.90
21582;DHT22;10952;50.836;4.348;2023-04-15T10:29:55;16.80;99.90
21582;DHT22;10952;50.836;4.348;2023-04-15T10:32:23;17.60;99.90
21582;DHT22;10952;50.836;4.348;2023-04-15T10:34:51;19.10;99.90
21582;DHT22;10952;50.836;4.348;2023-04-15T10:37:33;21.00;99.90
21582;DHT22;10952;50.836;4.348;2023-04-15T10:39:59;22.40;99.80
21582;DHT22;10952;50.836;4.348;2023-04-15T10:42:33;24.80;95.50
21582;DHT22;10952;50.836;4.348;2023-04-15T10:44:59;25.10;92.80
21582;DHT22;10952;50.836;4.348;2023-04-15T10:47:25;25.40;87.70
21582;DHT22;10952;50.836;4.348;2023-04-15T10:49:51;24.60;86.30
21582;DHT22;10952;50.836;4.348;2023-04-15T10:52:24;24.30;87.60
21582;DHT22;10952;50.836;4.348;2023-04-15T10:55:23;24.60;85.70
21582;DHT22;10952;50.836;4.348;2023-04-15T10:57:52;24.80;85.30
21582;DHT22;10952;50.836;4.348;2023-04-15T11:00:20;25.70;81.60
21582;DHT22;10952;50.836;4.348;2023-04-15T11:02:58;26.40;78.00
21582;DHT22;10952;50.836;4.348;2023-04-15T11:08:14;26.50;74.80
21582;DHT22;10952;50.836;4.348;2023-04-15T11:15:41;28.10;63.70
21582;DHT22;10952;50.836;4.348;2023-04-15T11:18:20;27.90;63.00
21582;DHT22;10952;50.836;4.348;2023-04-15T11:23:16;28.50;61.00
21582;DHT22;10952;50.836;4.348;2023-04-15T11:25:43;28.70;59.10
21582;DHT22;10952;50.836;4.348;2023-04-15T11:28:10;29.30;60.10
21582;DHT22;10952;50.836;4.348;2023-04-15T11:30:37;29.00;60.10
21582;DHT22;10952;50.836;4.348;2023-04-15T11:33:05;29.50;59.00
21582;DHT22;10952;50.836;4.348;2023-04-15T11:35:33;29.30;59.00
21582;DHT22;10952;50.836;4.348;2023-04-15T11:38:07;29.70;59.10
21582;DHT22;10952;50.836;4.348;2023-04-15T11:40:33;28.70;58.70
21582;DHT22;10952;50.836;4.348;2023-04-15T11:43:20;28.40;58.30
21582;DHT22;10952;50.836;4.348;2023-04-15T11:45:54;28.50;58.90
21582;DHT22;10952;50.836;4.348;2023-04-15T11:48:28;27.80;56.40
21582;DHT22;10952;50.836;4.348;2023-04-15T11:51:07;28.10;56.10
21582;DHT22;10952;50.836;4.348;2023-04-15T11:56:09;27.70;51.80
21582;DHT22;10952;50.836;4.348;2023-04-15T11:58:36;27.20;52.00
21582;DHT22;10952;50.836;4.348;2023-04-15T12:01:03;26.10;55.10
21582;DHT22;10952;50.836;4.348;2023-04-15T12:16:43;24.20;56.80
21582;DHT22;10952;50.836;4.348;2023-04-15T12:19:12;24.20;55.60
21582;DHT22;10952;50.836;4.348;2023-04-15T12:21:40;23.70;55.70
21582;DHT22;10952;50.836;4.348;2023-04-15T12:24:08;23.90;56.80
21582;DHT22;10952;50.836;4.348;2023-04-15T12:26:35;24.20;56.00
21582;DHT22;10952;50.836;4.348;2023-04-15T12:29:03;24.00;57.50
21582;DHT22;10952;50.836;4.348;2023-04-15T12:31:29;24.50;58.10
21582;DHT22;10952;50.836;4.348;2023-04-15T12:33:56;25.30;58.30
21582;DHT22;10952;50.836;4.348;2023-04-15T12:36:22;25.10;56.20
21582;DHT22;10952;50.836;4.348;2023-04-15T12:38:48;24.50;57.80
21582;DHT22;10952;50.836;4.348;2023-04-15T12:41:14;24.40;57.70
21582;DHT22;10952;50.836;4.348;2023-04-15T12:43:39;24.80;57.90
21582;DHT22;10952;50.836;4.348;2023-04-15T12:46:06;24.20;54.90
21582;DHT22;10952;50.836;4.348;2023-04-15T12:48:33;23.30;54.60
21582;DHT22;10952;50.836;4.348;2023-04-15T12:50:59;23.00;56.80
21582;DHT22;10952;50.836;4.348;2023-04-15T12:53:25;22.90;57.70
21582;DHT22;10952;50.836;4.348;2023-04-15T12:55:51;23.30;57.90
21582;DHT22;10952;50.836;4.348;2023-04-15T12:58:17;23.50;58.30
21582;DHT22;10952;50.836;4.348;2023-04-15T13:00:42;22.80;59.10
21582;DHT22;10952;50.836;4.348;2023-04-15T13:03:09;22.20;57.80
21582;DHT22;10952;50.836;4.348;2023-04-15T13:05:35;21.50;57.10
21582;DHT22;10952;50.836;4.348;2023-04-15T13:08:01;21.10;57.70
21582;DHT22;10952;50.836;4.348;2023-04-15T13:10:28;20.50;58.90
21582;DHT22;10952;50.836;4.348;2023-04-15T13:12:54;19.70;61.20
21582;DHT22;10952;50.836;4.348;2023-04-15T13:15:21;19.40;63.70
21582;DHT22;10952;50.836;4.348;2023-04-15T13:17:47;19.20;63.30
21582;DHT22;10952;50.836;4.348;2023-04-15T13:20:13;19.10;64.60
21582;DHT22;10952;50.836;4.348;2023-04-15T13:22:40;18.90;63.90
21582;DHT22;10952;50.836;4.348;2023-04-15T13:25:06;19.00;65.40
21582;DHT22;10952;50.836;4.348;2023-04-15T13:27:32;19.00;66.70
21582;DHT22;10952;50.836;4.348;2023-04-15T13:29:58;19.00;68.10
21582;DHT22;10952;50.836;4.348;2023-04-15T13:32:24;19.00;69.90
21582;DHT22;10952;50.836;4.348;2023-04-15T13:34:50;18.80;71.20
21582;DHT22;10952;50.836;4.348;2023-04-15T13:37:15;18.70;73.30
21582;DHT22;10952;50.836;4.348;2023-04-15T13:39:41;18.90;72.60
21582;DHT22;10952;50.836;4.348;2023-04-15T13:42:07;19.20;71.40
21582;DHT22;10952;50.836;4.348;2023-04-15T13:44:32;19.30;70.20
21582;DHT22;10952;50.836;4.348;2023-04-15T13:46:58;18.80;69.80
21582;DHT22;10952;50.836;4.348;2023-04-15T13:49:23;18.80;70.50
21582;DHT22;10952;50.836;4.348;2023-04-15T13:51:50;18.90;69.80
21582;DHT22;10952;50.836;4.348;2023-04-15T13:54:16;19.20;69.90
21582;DHT22;10952;50.836;4.348;2023-04-15T13:56:41;19.30;69.80
21582;DHT22;10952;50.836;4.348;2023-04-15T13:59:07;19.20;69.70
21582;DHT22;10952;50.836;4.348;2023-04-15T14:01:34;19.00;68.90
21582;DHT22;10952;50.836;4.348;2023-04-15T14:03:59;19.00;69.10
21582;DHT22;10952;50.836;4.348;2023-04-15T14:06:25;18.80;70.60
21582;DHT22;10952;50.836;4.348;2023-04-15T14:08:53;18.80;70.00
21582;DHT22;10952;50.836;4.348;2023-04-15T14:11:18;18.80;69.70
21582;DHT22;10952;50.836;4.348;2023-04-15T14:13:44;18.60;69.90
21582;DHT22;10952;50.836;4.348;2023-04-15T14:16:10;18.70;71.10
21582;DHT22;10952;50.836;4.348;2023-04-15T14:18:35;18.90;71.70
21582;DHT22;10952;50.836;4.348;2023-04-15T14:21:02;18.60;73.00
21582;DHT22;10952;50.836;4.348;2023-04-15T14:23:28;18.60;73.80
21582;DHT22;10952;50.836;4.348;2023-04-15T14:25:53;18.70;74.80
21582;DHT22;10952;50.836;4.348;2023-04-15T14:28:19;18.70;73.90
21582;DHT22;10952;50.836;4.348;2023-04-15T14:30:44;18.50;73.80
21582;DHT22;10952;50.836;4.348;2023-04-15T14:33:10;18.40;74.50
21582;DHT22;10952;50.836;4.348;2023-04-15T14:35:36;18.40;74.70
21582;DHT22;10952;50.836;4.348;2023-04-15T14:38:02;18.40;72.90
21582;DHT22;10952;50.836;4.348;2023-04-15T14:40:28;18.30;73.10
21582;DHT22;10952;50.836;4.348;2023-04-15T14:42:54;18.60;73.90
21582;DHT22;10952;50.836;4.348;2023-04-15T14:45:19;18.70;73.80
21582;DHT22;10952;50.836;4.348;2023-04-15T14:47:46;18.80;72.80
21582;DHT22;10952;50.836;4.348;2023-04-15T14:50:11;18.70;72.90
21582;DHT22;10952;50.836;4.348;2023-04-15T14:52:37;18.60;71.90
21582;DHT22;10952;50.836;4.348;2023-04-15T14:55:10;18.60;72.70
21582;DHT22;10952;50.836;4.348;2023-04-15T14:57:37;18.40;73.20
21582;DHT22;10952;50.836;4.348;2023-04-15T15:00:03;18.10;74.60
21582;DHT22;10952;50.836;4.348;2023-04-15T15:02:29;18.10;75.70
21582;DHT22;10952;50.836;4.348;2023-04-15T15:04:56;18.00;76.30
21582;DHT22;10952;50.836;4.348;2023-04-15T15:07:22;17.90;78.10
21582;DHT22;10952;50.836;4.348;2023-04-15T15:09:48;18.10;78.00
21582;DHT22;10952;50.836;4.348;2023-04-15T15:12:13;18.20;77.40
21582;DHT22;10952;50.836;4.348;2023-04-15T15:14:39;18.10;78.90
21582;DHT22;10952;50.836;4.348;2023-04-15T15:17:05;18.10;79.30
21582;DHT22;10952;50.836;4.348;2023-04-15T15:19:30;18.00;78.30
21582;DHT22;10952;50.836;4.348;2023-04-15T15:21:56;17.90;79.50
21582;DHT22;10952;50.836;4.348;2023-04-15T15:24:21;17.70;80.40
21582;DHT22;10952;50.836;4.348;2023-04-15T15:26:47;17.60;86.20
21582;DHT22;10952;50.836;4.348;2023-04-15T15:29:13;17.30;89.00
21582;DHT22;10952;50.836;4.348;2023-04-15T15:31:38;17.40;90.00
21582;DHT22;10952;50.836;4.348;2023-04-15T15:34:04;17.20;90.90
21582;DHT22;10952;50.836;4.348;2023-04-15T15:36:30;17.20;91.70
21582;DHT22;10952;50.836;4.348;2023-04-15T15:38:56;17.30;92.20
21582;DHT22;10952;50.836;4.348;2023-04-15T15:41:22;17.50;92.50
21582;DHT22;10952;50.836;4.348;2023-04-15T15:43:48;17.80;92.30
21582;DHT22;10952;50.836;4.348;2023-04-15T15:46:14;17.70;93.10
21582;DHT22;10952;50.836;4.348;2023-04-15T15:48:40;17.90;93.30
21582;DHT22;10952;50.836;4.348;2023-04-15T15:51:05;17.90;93.70
21582;DHT22;10952;50.836;4.348;2023-04-15T15:53:32;17.90;93.80
21582;DHT22;10952;50.836;4.348;2023-04-15T15:55:58;17.20;95.20
21582;DHT22;10952;50.836;4.348;2023-04-15T15:58:24;16.70;96.50